createdAt,value
2023-03-23T00:03:44.883Z,14.51
2023-03-23T00:04:44.862Z,14.45
2023-03-23T00:05:44.843Z,14.42
2023-03-23T00:07:44.856Z,14.41
2023-03-23T00:08:44.864Z,14.42
2023-03-23T00:10:45.099Z,14.45
2023-03-23T00:12:44.893Z,14.43
2023-03-23T00:15:44.899Z,14.44
2023-03-23T00:16:44.916Z,14.43
2023-03-23T00:17:44.898Z,14.45
2023-03-23T00:19:44.919Z,14.46
2023-03-23T00:20:44.932Z,14.48
2023-03-23T00:21:44.931Z,14.47
2023-03-23T00:22:44.916Z,14.46
2023-03-23T00:23:44.915Z,14.47
2023-03-23T00:24:44.944Z,14.45
2023-03-23T00:25:44.916Z,14.41
2023-03-23T00:26:48.009Z,14.34
2023-03-23T00:27:44.963Z,14.23
2023-03-23T00:28:44.936Z,14.06
2023-03-23T00:29:44.934Z,13.97
2023-03-23T00:30:44.933Z,13.89
2023-03-23T00:31:44.918Z,13.85
2023-03-23T00:32:44.954Z,13.83
2023-03-23T00:33:44.966Z,13.86
2023-03-23T00:34:44.920Z,13.90
2023-03-23T00:35:45.102Z,13.97
2023-03-23T00:36:44.941Z,14.00
2023-03-23T00:37:44.992Z,14.02
2023-03-23T00:38:44.960Z,14.04
2023-03-23T00:40:44.987Z,14.07
2023-03-23T00:41:44.994Z,14.08
2023-03-23T00:42:44.980Z,14.11
2023-03-23T00:43:44.971Z,14.07
2023-03-23T00:44:44.948Z,14.02
2023-03-23T00:45:44.985Z,14.01
2023-03-23T00:46:45.000Z,14.02
2023-03-23T00:47:44.998Z,14.07
2023-03-23T00:48:44.956Z,14.14
2023-03-23T00:49:44.969Z,14.21
2023-03-23T00:50:44.969Z,14.25
2023-03-23T00:51:44.977Z,14.29
2023-03-23T00:52:44.974Z,14.31
2023-03-23T00:53:44.999Z,14.33
2023-03-23T00:54:44.991Z,14.34
2023-03-23T00:55:45.004Z,14.33
2023-03-23T00:56:44.998Z,14.35
2023-03-23T00:57:45.019Z,14.28
2023-03-23T00:58:44.999Z,14.23
2023-03-23T00:59:45.018Z,14.21
2023-03-23T01:02:45.033Z,14.23
2023-03-23T01:03:45.002Z,14.27
2023-03-23T01:04:45.006Z,14.30
2023-03-23T01:11:45.061Z,14.31
2023-03-23T01:12:45.024Z,14.32
2023-03-23T01:13:45.092Z,14.33
2023-03-23T01:15:45.073Z,14.34
2023-03-23T01:16:45.066Z,14.32
2023-03-23T01:17:45.053Z,14.30
2023-03-23T01:18:45.102Z,14.31
2023-03-23T01:20:45.074Z,14.32
2023-03-23T01:21:45.087Z,14.33
2023-03-23T01:23:45.094Z,14.34
2023-03-23T01:24:45.081Z,14.36
2023-03-23T01:25:45.083Z,14.38
2023-03-23T01:27:45.086Z,14.37
2023-03-23T01:28:45.135Z,14.39
2023-03-23T01:30:45.100Z,14.40
2023-03-23T01:31:45.105Z,14.41
2023-03-23T01:32:45.100Z,14.38
2023-03-23T01:33:45.091Z,14.37
2023-03-23T01:34:45.104Z,14.35
2023-03-23T01:35:45.122Z,14.31
2023-03-23T01:36:45.148Z,14.18
2023-03-23T01:37:45.124Z,14.08
2023-03-23T01:38:45.124Z,14.06
2023-03-23T01:39:45.117Z,14.03
2023-03-23T01:40:45.116Z,14.01
2023-03-23T01:41:45.146Z,13.92
2023-03-23T01:42:45.103Z,13.82
2023-03-23T01:43:45.125Z,13.80
2023-03-23T01:44:45.119Z,13.78
2023-03-23T01:45:45.132Z,13.81
2023-03-23T01:46:45.115Z,13.86
2023-03-23T01:47:45.114Z,13.90
2023-03-23T01:48:45.124Z,13.96
2023-03-23T01:49:45.148Z,14.02
2023-03-23T01:50:45.134Z,14.05
2023-03-23T01:51:45.142Z,14.03
2023-03-23T01:52:45.130Z,14.01
2023-03-23T01:53:45.155Z,13.99
2023-03-23T01:54:45.146Z,14.01
2023-03-23T01:55:45.130Z,14.04
2023-03-23T01:56:45.169Z,14.08
2023-03-23T01:57:45.140Z,14.12
2023-03-23T01:58:45.178Z,14.10
2023-03-23T01:59:45.169Z,14.06
2023-03-23T02:00:45.168Z,14.05
2023-03-23T02:01:45.179Z,14.07
2023-03-23T02:02:45.203Z,14.04
2023-03-23T02:03:45.200Z,14.07
2023-03-23T02:04:45.173Z,13.97
2023-03-23T02:05:45.147Z,13.94
2023-03-23T02:06:45.159Z,13.95
2023-03-23T02:07:45.208Z,13.96
2023-03-23T02:08:45.164Z,13.99
2023-03-23T02:09:45.186Z,14.02
2023-03-23T02:10:45.206Z,14.07
2023-03-23T02:11:45.207Z,14.11
2023-03-23T02:12:45.261Z,14.12
2023-03-23T02:15:45.211Z,14.11
2023-03-23T02:16:45.193Z,14.00
2023-03-23T02:17:45.233Z,13.98
2023-03-23T02:18:45.216Z,13.99
2023-03-23T02:20:45.242Z,13.97
2023-03-23T02:21:45.242Z,13.98
2023-03-23T02:22:45.234Z,13.95
2023-03-23T02:23:45.223Z,13.97
2023-03-23T02:24:45.228Z,13.99
2023-03-23T02:25:45.271Z,14.04
2023-03-23T02:26:45.234Z,14.08
2023-03-23T02:27:45.248Z,14.12
2023-03-23T02:28:45.268Z,14.16
2023-03-23T02:29:45.777Z,14.18
2023-03-23T02:30:45.246Z,14.15
2023-03-23T02:31:45.235Z,14.14
2023-03-23T02:32:45.237Z,14.16
2023-03-23T02:33:45.246Z,14.21
2023-03-23T02:34:45.259Z,14.19
2023-03-23T02:35:45.367Z,14.13
2023-03-23T02:36:45.277Z,14.11
2023-03-23T02:37:45.259Z,14.13
2023-03-23T02:38:45.317Z,14.19
2023-03-23T02:39:45.280Z,14.22
2023-03-23T02:40:45.263Z,14.27
2023-03-23T02:41:45.344Z,14.34
2023-03-23T02:42:45.271Z,14.39
2023-03-23T02:43:45.274Z,14.41
2023-03-23T02:44:45.268Z,14.46
2023-03-23T02:45:45.280Z,14.50
2023-03-23T02:46:45.252Z,14.56
2023-03-23T02:47:45.286Z,14.59
2023-03-23T02:48:45.289Z,14.62
2023-03-23T02:49:45.289Z,14.63
2023-03-23T02:50:45.308Z,14.64
2023-03-23T02:52:45.291Z,14.59
2023-03-23T02:53:45.410Z,14.55
2023-03-23T02:54:45.320Z,14.52
2023-03-23T02:55:45.325Z,14.48
2023-03-23T02:56:45.335Z,14.49
2023-03-23T02:57:45.318Z,14.48
2023-03-23T02:58:45.314Z,14.47
2023-03-23T02:59:45.309Z,14.44
2023-03-23T03:00:45.277Z,14.40
2023-03-23T03:01:45.360Z,14.36
2023-03-23T03:02:45.317Z,14.35
2023-03-23T03:03:45.327Z,14.34
2023-03-23T03:04:45.323Z,14.36
2023-03-23T03:05:45.300Z,14.39
2023-03-23T03:06:45.331Z,14.40
2023-03-23T03:07:45.333Z,14.41
2023-03-23T03:08:45.304Z,14.42
2023-03-23T03:09:45.348Z,14.41
2023-03-23T03:10:45.338Z,14.38
2023-03-23T03:11:45.351Z,14.37
2023-03-23T03:12:45.335Z,14.33
2023-03-23T03:13:45.358Z,14.31
2023-03-23T03:14:45.392Z,14.29
2023-03-23T03:15:45.339Z,14.27
2023-03-23T03:16:45.350Z,14.21
2023-03-23T03:17:45.328Z,14.18
2023-03-23T03:18:45.358Z,14.14
2023-03-23T03:19:45.388Z,14.13
2023-03-23T03:21:45.365Z,14.06
2023-03-23T03:22:45.394Z,13.94
2023-03-23T03:23:45.372Z,13.87
2023-03-23T03:24:45.422Z,13.88
2023-03-23T03:25:45.380Z,13.92
2023-03-23T03:26:45.376Z,14.00
2023-03-23T03:27:45.366Z,14.06
2023-03-23T03:28:45.376Z,14.13
2023-03-23T03:29:45.399Z,14.14
2023-03-23T03:30:45.391Z,14.13
2023-03-23T03:31:45.366Z,14.14
2023-03-23T03:32:45.406Z,14.06
2023-03-23T03:33:45.397Z,13.88
2023-03-23T03:34:45.397Z,13.82
2023-03-23T03:35:45.421Z,13.74
2023-03-23T03:36:45.425Z,13.75
2023-03-23T03:37:45.389Z,13.81
2023-03-23T03:38:45.395Z,13.89
2023-03-23T03:39:45.433Z,13.97
2023-03-23T03:40:45.392Z,14.04
2023-03-23T03:41:45.396Z,14.10
2023-03-23T03:42:45.394Z,14.16
2023-03-23T03:43:45.393Z,14.20
2023-03-23T03:44:45.418Z,14.23
2023-03-23T03:45:45.438Z,14.29
2023-03-23T03:46:45.409Z,14.30
2023-03-23T03:47:45.448Z,14.29
2023-03-23T03:48:45.406Z,14.30
2023-03-23T03:49:45.413Z,14.31
2023-03-23T03:50:45.442Z,14.32
2023-03-23T03:51:45.443Z,14.33
2023-03-23T03:53:45.416Z,14.32
2023-03-23T03:55:45.474Z,14.34
2023-03-23T03:56:45.444Z,14.36
2023-03-23T03:57:45.455Z,14.37
2023-03-23T04:00:45.491Z,14.36
2023-03-23T04:01:45.454Z,14.35
2023-03-23T04:02:45.476Z,14.32
2023-03-23T04:03:45.457Z,14.27
2023-03-23T04:05:45.534Z,14.31
2023-03-23T04:06:45.489Z,14.34
2023-03-23T04:07:45.509Z,14.37
2023-03-23T04:08:45.546Z,14.41
2023-03-23T04:09:45.499Z,14.44
2023-03-23T04:10:45.496Z,14.48
2023-03-23T04:11:45.492Z,14.50
2023-03-23T04:12:45.462Z,14.49
2023-03-23T04:13:45.463Z,14.53
2023-03-23T04:14:45.548Z,14.57
2023-03-23T04:15:45.465Z,14.58
2023-03-23T04:16:45.509Z,14.56
2023-03-23T04:17:45.480Z,14.53
2023-03-23T04:18:45.465Z,14.54
2023-03-23T04:19:45.508Z,14.47
2023-03-23T04:20:45.544Z,14.48
2023-03-23T04:21:45.521Z,14.43
2023-03-23T04:22:45.489Z,14.32
2023-03-23T04:23:45.517Z,14.28
2023-03-23T04:24:56.865Z,14.24
2023-03-23T04:25:45.546Z,14.31
2023-03-23T04:26:45.524Z,14.38
2023-03-23T04:27:45.519Z,14.49
2023-03-23T04:28:45.549Z,14.59
2023-03-23T04:29:45.526Z,14.67
2023-03-23T04:30:45.529Z,14.75
2023-03-23T04:31:45.535Z,14.77
2023-03-23T04:32:45.530Z,14.69
2023-03-23T04:33:58.712Z,14.65
2023-03-23T04:34:45.554Z,14.67
2023-03-23T04:35:45.572Z,14.62
2023-03-23T04:36:56.488Z,14.61
2023-03-23T04:38:45.564Z,14.65
2023-03-23T04:39:45.620Z,14.69
2023-03-23T04:40:45.579Z,14.68
2023-03-23T04:41:45.558Z,14.67
2023-03-23T04:42:45.570Z,14.69
2023-03-23T04:43:45.582Z,14.72
2023-03-23T04:45:45.558Z,14.77
2023-03-23T04:46:45.543Z,14.84
2023-03-23T04:47:45.562Z,14.90
2023-03-23T04:48:45.554Z,14.91
2023-03-23T04:49:45.607Z,14.92
2023-03-23T04:51:45.589Z,14.94
2023-03-23T04:52:45.646Z,14.96
2023-03-23T04:53:45.604Z,14.97
2023-03-23T04:54:45.592Z,14.99
2023-03-23T04:55:45.584Z,15.01
2023-03-23T04:57:45.694Z,14.99
2023-03-23T04:58:45.583Z,14.97
2023-03-23T04:59:45.578Z,14.96
2023-03-23T05:01:45.598Z,14.95
2023-03-23T05:04:45.629Z,14.96
2023-03-23T05:05:45.631Z,14.97
2023-03-23T05:06:45.652Z,14.94
2023-03-23T05:07:45.657Z,14.92
2023-03-23T05:08:45.617Z,14.91
2023-03-23T05:09:45.626Z,14.92
2023-03-23T05:10:45.636Z,14.95
2023-03-23T05:11:45.639Z,14.96
2023-03-23T05:12:45.675Z,14.97
2023-03-23T05:13:45.614Z,14.99
2023-03-23T05:15:45.664Z,15.00
2023-03-23T05:16:45.618Z,15.01
2023-03-23T05:17:45.681Z,15.05
2023-03-23T05:18:45.661Z,15.08
2023-03-23T05:19:45.652Z,15.12
2023-03-23T05:20:45.688Z,15.10
2023-03-23T05:21:45.629Z,15.12
2023-03-23T05:22:45.659Z,15.16
2023-03-23T05:23:45.660Z,15.21
2023-03-23T05:24:45.665Z,15.24
2023-03-23T05:26:45.682Z,15.26
2023-03-23T05:27:45.699Z,15.27
2023-03-23T05:28:45.680Z,15.26
2023-03-23T05:30:45.697Z,15.27
2023-03-23T05:31:45.655Z,15.26
2023-03-23T05:32:45.671Z,15.23
2023-03-23T05:33:45.671Z,15.22
2023-03-23T05:34:45.685Z,15.21
2023-03-23T05:35:45.990Z,15.20
2023-03-23T05:36:45.709Z,15.18
2023-03-23T05:37:45.719Z,15.16
2023-03-23T05:38:45.714Z,15.14
2023-03-23T05:39:45.706Z,15.11
2023-03-23T05:40:45.721Z,15.10
2023-03-23T05:41:47.299Z,15.09
2023-03-23T05:42:45.703Z,15.07
2023-03-23T05:43:45.708Z,15.06
2023-03-23T05:45:45.708Z,15.02
2023-03-23T05:46:45.695Z,14.90
2023-03-23T05:47:45.714Z,14.83
2023-03-23T05:49:45.717Z,14.85
2023-03-23T05:50:45.748Z,14.84
2023-03-23T05:51:46.307Z,14.80
2023-03-23T05:52:45.744Z,14.68
2023-03-23T05:53:45.750Z,14.66
2023-03-23T05:54:45.801Z,14.71
2023-03-23T05:55:45.712Z,14.75
2023-03-23T05:56:45.767Z,14.78
2023-03-23T05:57:45.755Z,14.84
2023-03-23T05:58:45.720Z,14.90
2023-03-23T05:59:45.753Z,14.96
2023-03-23T06:00:45.802Z,15.01
2023-03-23T06:01:45.818Z,15.05
2023-03-23T06:02:45.777Z,15.07
2023-03-23T06:03:45.750Z,15.11
2023-03-23T06:04:45.782Z,15.13
2023-03-23T06:05:45.782Z,15.15
2023-03-23T06:06:45.752Z,15.18
2023-03-23T06:07:45.762Z,15.20
2023-03-23T06:08:45.767Z,15.18
2023-03-23T06:10:45.823Z,15.17
2023-03-23T06:11:45.768Z,15.16
2023-03-23T06:12:45.822Z,15.17
2023-03-23T06:14:45.777Z,15.18
2023-03-23T06:15:45.813Z,15.21
2023-03-23T06:16:45.819Z,15.20
2023-03-23T06:17:45.840Z,15.22
2023-03-23T06:18:45.781Z,15.24
2023-03-23T06:20:47.629Z,15.15
2023-03-23T06:21:45.821Z,15.09
2023-03-23T06:22:45.835Z,15.11
2023-03-23T06:24:45.800Z,15.07
2023-03-23T06:26:45.842Z,14.93
2023-03-23T06:27:45.818Z,14.97
2023-03-23T06:28:45.854Z,15.05
2023-03-23T06:29:45.821Z,15.15
2023-03-23T06:30:45.828Z,15.21
2023-03-23T06:31:45.847Z,15.27
2023-03-23T06:32:45.845Z,15.30
2023-03-23T06:33:45.899Z,15.35
2023-03-23T06:34:45.830Z,15.33
2023-03-23T06:35:45.913Z,15.35
2023-03-23T06:36:45.858Z,15.42
2023-03-23T06:37:45.864Z,15.51
2023-03-23T06:38:45.890Z,15.59
2023-03-23T06:39:45.873Z,15.67
2023-03-23T06:40:45.839Z,15.71
2023-03-23T06:41:45.861Z,15.74
2023-03-23T06:42:45.847Z,15.76
2023-03-23T06:43:45.888Z,15.81
2023-03-23T06:44:45.885Z,15.87
2023-03-23T06:45:45.858Z,15.91
2023-03-23T06:46:45.877Z,15.96
2023-03-23T06:47:45.883Z,16.00
2023-03-23T06:48:45.898Z,16.06
2023-03-23T06:49:45.898Z,16.11
2023-03-23T06:50:45.907Z,16.16
2023-03-23T06:51:45.888Z,16.19
2023-03-23T06:52:45.889Z,16.21
2023-03-23T06:53:45.873Z,16.25
2023-03-23T06:54:45.923Z,16.29
2023-03-23T06:56:45.898Z,16.31
2023-03-23T06:57:45.923Z,16.34
2023-03-23T06:58:45.914Z,16.39
2023-03-23T06:59:45.915Z,16.43
2023-03-23T07:00:45.910Z,16.38
2023-03-23T07:01:45.964Z,16.41
2023-03-23T07:02:45.933Z,16.48
2023-03-23T07:03:45.940Z,16.58
2023-03-23T07:04:45.927Z,16.68
2023-03-23T07:05:45.940Z,16.75
2023-03-23T07:06:45.937Z,16.82
2023-03-23T07:07:45.943Z,16.76
2023-03-23T07:08:45.972Z,16.66
2023-03-23T07:09:45.985Z,16.69
2023-03-23T07:10:45.954Z,16.70
2023-03-23T07:11:45.964Z,16.79
2023-03-23T07:12:45.947Z,16.86
2023-03-23T07:13:45.960Z,16.90
2023-03-23T07:14:45.986Z,16.95
2023-03-23T07:15:45.965Z,16.99
2023-03-23T07:16:45.959Z,17.04
2023-03-23T07:17:45.956Z,17.05
2023-03-23T07:18:45.961Z,17.09
2023-03-23T07:19:45.944Z,16.99
2023-03-23T07:20:45.956Z,16.88
2023-03-23T07:21:45.957Z,16.87
2023-03-23T07:22:46.018Z,16.91
2023-03-23T07:23:45.967Z,16.97
2023-03-23T07:24:45.978Z,17.02
2023-03-23T07:25:46.025Z,17.05
2023-03-23T07:26:45.964Z,17.12
2023-03-23T07:27:46.027Z,17.20
2023-03-23T07:28:46.030Z,17.34
2023-03-23T07:29:45.974Z,17.51
2023-03-23T07:30:45.963Z,17.67
2023-03-23T07:31:46.019Z,17.82
2023-03-23T07:32:45.985Z,17.86
2023-03-23T07:33:45.991Z,17.88
2023-03-23T07:34:46.002Z,17.85
2023-03-23T07:35:46.075Z,17.81
2023-03-23T07:36:45.989Z,17.80
2023-03-23T07:37:46.024Z,17.82
2023-03-23T07:38:46.002Z,17.84
2023-03-23T07:39:46.000Z,17.85
2023-03-23T07:42:46.046Z,17.84
2023-03-23T07:43:46.006Z,17.82
2023-03-23T07:44:46.281Z,17.77
2023-03-23T07:45:46.071Z,17.73
2023-03-23T07:46:46.040Z,17.70
2023-03-23T07:47:46.061Z,17.69
2023-03-23T07:51:46.021Z,17.71
2023-03-23T07:52:46.058Z,17.57
2023-03-23T07:53:46.060Z,17.37
2023-03-23T07:54:46.045Z,17.18
2023-03-23T07:55:46.225Z,17.16
2023-03-23T07:56:46.071Z,17.20
2023-03-23T07:57:46.082Z,17.24
2023-03-23T07:58:46.079Z,17.14
2023-03-23T07:59:46.080Z,17.15
2023-03-23T08:00:46.099Z,17.18
2023-03-23T08:01:46.082Z,17.19
2023-03-23T08:02:46.066Z,17.18
2023-03-23T08:03:47.366Z,17.15
2023-03-23T08:05:46.116Z,17.24
2023-03-23T08:06:46.098Z,17.36
2023-03-23T08:07:46.085Z,17.47
2023-03-23T08:08:46.090Z,17.57
2023-03-23T08:09:46.117Z,17.63
2023-03-23T08:10:46.116Z,17.69
2023-03-23T08:11:46.121Z,17.66
2023-03-23T08:12:46.082Z,17.58
2023-03-23T08:13:46.170Z,17.61
2023-03-23T08:14:46.093Z,17.67
2023-03-23T08:15:46.114Z,17.75
2023-03-23T08:16:46.098Z,17.84
2023-03-23T08:17:46.098Z,17.91
2023-03-23T08:18:46.114Z,17.92
2023-03-23T08:20:46.199Z,17.94
2023-03-23T08:21:46.115Z,17.96
2023-03-23T08:22:53.134Z,17.98
2023-03-23T08:23:46.090Z,18.01
2023-03-23T08:24:46.130Z,18.02
2023-03-23T08:25:46.161Z,17.99
2023-03-23T08:26:46.140Z,18.00
2023-03-23T08:28:46.111Z,17.97
2023-03-23T08:29:46.145Z,17.92
2023-03-23T08:30:46.136Z,17.85
2023-03-23T08:31:46.162Z,17.81
2023-03-23T08:32:46.154Z,17.79
2023-03-23T08:33:46.188Z,17.82
2023-03-23T08:34:46.156Z,17.79
2023-03-23T08:35:46.165Z,17.75
2023-03-23T08:36:46.184Z,17.65
2023-03-23T08:37:46.167Z,17.55
2023-03-23T08:38:46.209Z,17.56
2023-03-23T08:39:46.224Z,17.49
2023-03-23T08:40:46.171Z,17.52
2023-03-23T08:41:46.153Z,17.55
2023-03-23T08:42:52.381Z,17.67
2023-03-23T08:43:46.143Z,17.74
2023-03-23T08:44:46.143Z,17.75
2023-03-23T08:45:46.182Z,17.76
2023-03-23T08:46:46.232Z,17.73
2023-03-23T08:47:46.206Z,17.80
2023-03-23T08:48:46.174Z,17.81
2023-03-23T08:49:46.164Z,17.78
2023-03-23T08:50:46.202Z,17.88
2023-03-23T08:51:46.248Z,17.92
2023-03-23T08:52:46.188Z,17.91
2023-03-23T08:53:46.181Z,17.86
2023-03-23T08:54:46.181Z,17.84
2023-03-23T08:55:46.193Z,17.89
2023-03-23T08:56:46.221Z,17.94
2023-03-23T08:57:46.201Z,17.99
2023-03-23T08:58:46.195Z,18.02
2023-03-23T08:59:46.214Z,18.07
2023-03-23T09:00:47.818Z,18.12
2023-03-23T09:01:46.267Z,18.16
2023-03-23T09:02:46.248Z,18.25
2023-03-23T09:03:46.216Z,18.30
2023-03-23T09:04:46.194Z,18.33
2023-03-23T09:05:46.220Z,18.37
2023-03-23T09:06:46.257Z,18.42
2023-03-23T09:07:46.453Z,18.44
2023-03-23T09:08:46.257Z,18.43
2023-03-23T09:09:47.272Z,18.37
2023-03-23T09:11:46.288Z,18.36
2023-03-23T09:12:46.225Z,18.25
2023-03-23T09:13:46.229Z,18.26
2023-03-23T09:14:46.304Z,18.28
2023-03-23T09:16:46.262Z,18.29
2023-03-23T09:17:46.260Z,18.28
2023-03-23T09:18:46.249Z,18.27
2023-03-23T09:19:46.244Z,18.29
2023-03-23T09:20:46.269Z,18.28
2023-03-23T09:21:46.280Z,18.29
2023-03-23T09:23:46.262Z,18.30
2023-03-23T09:24:46.279Z,18.28
2023-03-23T09:25:46.300Z,18.29
2023-03-23T09:26:46.269Z,18.31
2023-03-23T09:27:46.308Z,18.26
2023-03-23T09:28:46.300Z,18.20
2023-03-23T09:29:46.282Z,18.19
2023-03-23T09:30:53.060Z,18.10
2023-03-23T09:31:46.327Z,17.98
2023-03-23T09:32:46.307Z,17.87
2023-03-23T09:33:47.130Z,17.71
2023-03-23T09:34:46.325Z,17.72
2023-03-23T09:35:46.352Z,17.73
2023-03-23T09:36:46.351Z,17.64
2023-03-23T09:37:46.290Z,17.69
2023-03-23T09:38:46.307Z,17.75
2023-03-23T09:39:46.313Z,17.81
2023-03-23T09:40:46.303Z,17.76
2023-03-23T09:41:46.349Z,17.73
2023-03-23T09:42:46.324Z,17.74
2023-03-23T09:43:46.331Z,17.78
2023-03-23T09:44:46.316Z,17.74
2023-03-23T09:45:46.319Z,17.77
2023-03-23T09:46:46.360Z,17.80
2023-03-23T09:47:46.316Z,17.83
2023-03-23T09:48:46.351Z,17.82
2023-03-23T09:51:46.332Z,17.89
2023-03-23T09:52:46.353Z,17.91
2023-03-23T09:53:46.378Z,17.99
2023-03-23T09:54:46.390Z,18.04
2023-03-23T09:55:46.348Z,18.15
2023-03-23T09:56:46.491Z,18.19
2023-03-23T09:57:46.360Z,18.28
2023-03-23T09:58:46.978Z,18.33
2023-03-23T09:59:46.382Z,18.41
2023-03-23T10:00:46.449Z,18.49
2023-03-23T10:01:46.361Z,18.52
2023-03-23T10:03:46.383Z,18.48
2023-03-23T10:04:46.364Z,18.46
2023-03-23T10:05:46.364Z,18.48
2023-03-23T10:07:46.449Z,18.51
2023-03-23T10:08:56.875Z,18.52
2023-03-23T10:09:46.395Z,18.51
2023-03-23T10:11:47.458Z,18.50
2023-03-23T10:12:46.420Z,18.52
2023-03-23T10:14:46.437Z,18.46
2023-03-23T10:16:46.385Z,18.52
2023-03-23T10:17:46.485Z,18.56
2023-03-23T10:18:46.421Z,18.58
2023-03-23T10:19:46.415Z,18.62
2023-03-23T10:20:46.464Z,18.67
2023-03-23T10:21:46.388Z,18.74
2023-03-23T10:22:46.444Z,18.81
2023-03-23T10:23:46.589Z,18.84
2023-03-23T10:24:46.425Z,18.87
2023-03-23T10:26:46.452Z,18.89
2023-03-23T10:27:46.413Z,18.91
2023-03-23T10:28:46.464Z,18.92
2023-03-23T10:30:46.459Z,18.94
2023-03-23T10:31:46.474Z,18.95
2023-03-23T10:32:46.423Z,18.97
2023-03-23T10:33:46.478Z,18.93
2023-03-23T10:34:46.471Z,18.92
2023-03-23T10:35:46.542Z,18.90
2023-03-23T10:36:46.496Z,18.89
2023-03-23T10:37:46.454Z,18.90
2023-03-23T10:38:46.503Z,18.91
2023-03-23T10:40:46.483Z,18.94
2023-03-23T10:41:46.456Z,18.95
2023-03-23T10:43:46.481Z,18.96
2023-03-23T10:44:46.480Z,18.95
2023-03-23T10:46:00.003Z,18.98
2023-03-23T10:47:46.504Z,18.96
2023-03-23T10:49:46.522Z,18.95
2023-03-23T10:51:46.536Z,18.92
2023-03-23T10:52:46.499Z,18.89
2023-03-23T10:54:46.585Z,18.87
2023-03-23T10:55:46.531Z,18.84
2023-03-23T10:56:58.809Z,18.83
2023-03-23T10:57:46.536Z,18.79
2023-03-23T10:58:46.532Z,18.78
2023-03-23T10:59:46.576Z,18.80
2023-03-23T11:00:46.549Z,18.84
2023-03-23T11:01:46.535Z,18.88
2023-03-23T11:04:46.560Z,18.83
2023-03-23T11:06:46.535Z,18.86
2023-03-23T11:07:46.558Z,18.91
2023-03-23T11:08:46.562Z,18.95
2023-03-23T11:09:46.536Z,19.00
2023-03-23T11:10:46.571Z,19.06
2023-03-23T11:11:46.577Z,19.09
2023-03-23T11:12:46.545Z,19.00
2023-03-23T11:13:47.513Z,18.94
2023-03-23T11:14:46.578Z,18.77
2023-03-23T11:15:46.538Z,18.48
2023-03-23T11:16:46.594Z,18.32
2023-03-23T11:17:46.589Z,18.35
2023-03-23T11:18:46.606Z,18.44
2023-03-23T11:19:47.028Z,18.54
2023-03-23T11:20:46.557Z,18.66
2023-03-23T11:21:46.617Z,18.72
2023-03-23T11:22:46.567Z,18.79
2023-03-23T11:23:46.576Z,18.84
2023-03-23T11:24:46.601Z,18.76
2023-03-23T11:25:46.595Z,18.77
2023-03-23T11:26:56.856Z,18.85
2023-03-23T11:27:46.626Z,18.97
2023-03-23T11:28:46.617Z,19.14
2023-03-23T11:29:51.995Z,19.22
2023-03-23T11:30:46.602Z,19.20
2023-03-23T11:31:46.614Z,19.24
2023-03-23T11:32:46.602Z,18.95
2023-03-23T11:33:50.039Z,18.93
2023-03-23T11:34:46.583Z,18.81
2023-03-23T11:35:46.609Z,18.72
2023-03-23T11:36:46.596Z,18.76
2023-03-23T11:37:46.671Z,18.86
2023-03-23T11:38:46.626Z,18.95
2023-03-23T11:39:46.615Z,19.07
2023-03-23T11:41:46.620Z,19.15
2023-03-23T11:42:46.646Z,19.27
2023-03-23T11:43:46.654Z,19.40
2023-03-23T11:44:46.668Z,19.52
2023-03-23T11:45:46.608Z,19.56
2023-03-23T11:46:46.628Z,19.60
2023-03-23T11:47:46.649Z,19.68
2023-03-23T11:48:46.632Z,19.78
2023-03-23T11:49:46.660Z,19.85
2023-03-23T11:50:46.648Z,19.84
2023-03-23T11:51:46.659Z,19.83
2023-03-23T11:52:46.697Z,19.84
2023-03-23T11:53:46.645Z,19.86
2023-03-23T11:54:46.673Z,19.90
2023-03-23T11:55:46.733Z,19.84
2023-03-23T11:56:46.670Z,19.83
2023-03-23T11:57:46.686Z,19.78
2023-03-23T11:58:46.646Z,19.62
2023-03-23T11:59:46.656Z,19.59
2023-03-23T12:00:46.677Z,19.67
2023-03-23T12:01:46.673Z,19.64
2023-03-23T12:02:46.656Z,19.60
2023-03-23T12:03:46.686Z,19.59
2023-03-23T12:04:46.670Z,19.64
2023-03-23T12:05:46.701Z,19.70
2023-03-23T12:06:46.714Z,19.75
2023-03-23T12:07:46.738Z,19.80
2023-03-23T12:08:46.708Z,19.88
2023-03-23T12:09:46.679Z,19.78
2023-03-23T12:13:49.886Z,19.87
2023-03-23T12:14:46.720Z,19.74
2023-03-23T12:15:46.727Z,19.80
2023-03-23T12:16:46.722Z,19.77
2023-03-23T12:17:46.728Z,19.80
2023-03-23T12:18:46.728Z,19.86
2023-03-23T12:19:46.708Z,19.91
2023-03-23T12:20:46.785Z,19.99
2023-03-23T12:21:46.722Z,20.09
2023-03-23T12:22:46.741Z,20.20
2023-03-23T12:23:46.740Z,20.30
2023-03-23T12:24:46.781Z,20.42
2023-03-23T12:25:46.750Z,20.53
2023-03-23T12:26:46.748Z,20.62
2023-03-23T12:27:46.772Z,20.68
2023-03-23T12:28:46.863Z,20.72
2023-03-23T12:29:46.793Z,20.73
2023-03-23T12:30:46.764Z,20.67
2023-03-23T12:31:46.781Z,20.51
2023-03-23T12:32:46.781Z,20.44
2023-03-23T12:33:46.765Z,20.43
2023-03-23T12:34:46.753Z,20.47
2023-03-23T12:35:46.820Z,20.50
2023-03-23T12:36:46.771Z,20.53
2023-03-23T12:39:46.776Z,20.51
2023-03-23T12:40:46.790Z,20.43
2023-03-23T12:41:46.796Z,20.39
2023-03-23T12:42:46.790Z,20.40
2023-03-23T12:43:46.812Z,20.41
2023-03-23T12:44:46.773Z,20.45
2023-03-23T12:45:46.805Z,20.50
2023-03-23T12:46:47.826Z,20.57
2023-03-23T12:47:46.798Z,20.64
2023-03-23T12:48:46.826Z,20.71
2023-03-23T12:49:46.800Z,20.75
2023-03-23T12:50:46.796Z,20.77
2023-03-23T12:51:46.810Z,20.79
2023-03-23T12:52:46.803Z,20.84
2023-03-23T12:53:46.832Z,20.88
2023-03-23T12:55:46.798Z,20.91
2023-03-23T12:56:46.832Z,20.93
2023-03-23T12:57:47.572Z,20.95
2023-03-23T12:58:47.526Z,20.98
2023-03-23T12:59:46.813Z,21.01
2023-03-23T13:00:46.826Z,20.98
2023-03-23T13:01:46.814Z,20.96
2023-03-23T13:02:46.830Z,20.95
2023-03-23T13:03:46.893Z,20.96
2023-03-23T13:04:47.610Z,20.94
2023-03-23T13:05:46.828Z,20.82
2023-03-23T13:06:46.828Z,20.79
2023-03-23T13:07:46.834Z,20.76
2023-03-23T13:08:46.843Z,20.42
2023-03-23T13:09:46.860Z,20.20
2023-03-23T13:10:46.875Z,20.16
2023-03-23T13:11:46.855Z,20.14
2023-03-23T13:12:46.848Z,20.17
2023-03-23T13:14:46.861Z,20.21
2023-03-23T13:15:46.849Z,20.16
2023-03-23T13:16:46.895Z,20.10
2023-03-23T13:17:46.857Z,20.11
2023-03-23T13:18:46.896Z,20.17
2023-03-23T13:19:46.895Z,20.23
2023-03-23T13:20:46.869Z,20.30
2023-03-23T13:21:52.700Z,20.38
2023-03-23T13:22:47.565Z,20.41
2023-03-23T13:23:46.880Z,20.45
2023-03-23T13:24:46.877Z,20.48
2023-03-23T13:25:46.923Z,20.38
2023-03-23T13:26:46.902Z,20.40
2023-03-23T13:27:46.912Z,20.46
2023-03-23T13:28:47.497Z,20.50
2023-03-23T13:29:46.893Z,20.51
2023-03-23T13:30:46.917Z,20.54
2023-03-23T13:31:46.987Z,20.58
2023-03-23T13:32:56.790Z,20.62
2023-03-23T13:33:46.901Z,20.57
2023-03-23T13:34:47.451Z,20.52
2023-03-23T13:35:46.954Z,20.53
2023-03-23T13:36:46.960Z,20.54
2023-03-23T13:38:46.968Z,20.55
2023-03-23T13:39:46.916Z,20.58
2023-03-23T13:40:46.961Z,20.60
2023-03-23T13:41:46.989Z,20.64
2023-03-23T13:42:46.928Z,20.68
2023-03-23T13:43:46.938Z,20.66
2023-03-23T13:44:46.968Z,20.67
2023-03-23T13:45:46.952Z,20.72
2023-03-23T13:46:46.963Z,20.74
2023-03-23T13:47:46.945Z,20.64
2023-03-23T13:48:46.972Z,20.58
2023-03-23T13:49:46.976Z,20.48
2023-03-23T13:50:46.947Z,20.45
2023-03-23T13:51:46.984Z,20.42
2023-03-23T13:52:47.106Z,20.39
2023-03-23T13:53:46.977Z,20.36
2023-03-23T13:54:47.198Z,20.29
2023-03-23T13:55:46.953Z,20.24
2023-03-23T13:56:46.965Z,20.04
2023-03-23T13:57:46.973Z,19.90
2023-03-23T13:58:47.456Z,19.85
2023-03-23T13:59:47.018Z,19.83
2023-03-23T14:00:47.020Z,19.86
2023-03-23T14:01:46.996Z,19.91
2023-03-23T14:02:47.019Z,19.94
2023-03-23T14:03:47.009Z,19.92
2023-03-23T14:04:47.012Z,19.89
2023-03-23T14:05:46.998Z,19.86
2023-03-23T14:06:46.988Z,19.77
2023-03-23T14:07:47.022Z,19.74
2023-03-23T14:08:47.020Z,19.73
2023-03-23T14:09:46.983Z,19.76
2023-03-23T14:10:47.040Z,19.75
2023-03-23T14:11:47.003Z,19.76
2023-03-23T14:12:47.009Z,19.80
2023-03-23T14:13:47.031Z,19.85
2023-03-23T14:14:47.012Z,19.82
2023-03-23T14:16:47.049Z,19.84
2023-03-23T14:17:47.036Z,19.83
2023-03-23T14:19:47.068Z,19.87
2023-03-23T14:20:47.045Z,19.91
2023-03-23T14:22:47.098Z,19.92
2023-03-23T14:23:47.038Z,19.97
2023-03-23T14:25:47.062Z,19.94